Time;durP1;ratioP1;P1;durP2;ratioP2;P2;SDS_P1;SDS_P2;PMS_P1;PMS_P2;Temp;Humidity;BMP_temperature;BMP_pressure;BME280_temperature;BME280_humidity;BME280_pressure;Samples;Min_cycle;Max_cycle;Signal;HPM_P1;HPM_P2
2021/06/11 00:00:18;;;;;;;;;2.00;2.00;;;;;;;;5090349;28;8802;-42
2021/06/11 00:02:43;;;;;;;;;0.33;0.33;;;;;;;;5080401;28;8817;-42
2021/06/11 00:05:09;;;;;;;;;1.00;1.00;;;;;;;;5077587;28;8782;-42
2021/06/11 00:07:34;;;;;;;;;1.00;1.00;;;;;;;;5077326;28;8788;-42
2021/06/11 00:10:00;;;;;;;;;1.33;1.33;;;;;;;;5073959;28;8797;-42
2021/06/11 00:12:26;;;;;;;;;2.00;1.50;;;;;;;;5074449;28;8716;-42
2021/06/11 00:14:51;;;;;;;;;1.33;1.33;;;;;;;;5072491;28;9558;-42
2021/06/11 00:17:16;;;;;;;;;1.33;1.33;;;;;;;;5097441;28;8760;-42
2021/06/11 00:19:41;;;;;;;;;0.67;0.67;;;;;;;;5094226;27;8801;-42
2021/06/11 00:22:06;;;;;;;;;0.00;0.00;;;;;;;;5084997;28;8771;-42
2021/06/11 00:24:32;;;;;;;;;0.33;0.33;;;;;;;;5079596;28;8774;-42
2021/06/11 00:26:57;;;;;;;;;1.33;1.33;;;;;;;;5095483;28;8823;-42
2021/06/11 00:29:23;;;;;;;;;1.33;1.33;;;;;;;;5091191;28;8857;-42
2021/06/11 00:31:48;;;;;;;;;0.67;0.67;;;;;;;;5085634;27;8859;-43
2021/06/11 00:34:13;;;;;;;;;0.33;0.33;;;;;;;;5090530;28;8793;-43
2021/06/11 00:36:38;;;;;;;;;0.33;0.33;;;;;;;;5088820;28;8804;-43
2021/06/11 00:39:04;;;;;;;;;1.33;1.33;;;;;;;;5087773;28;8778;-40
2021/06/11 00:41:30;;;;;;;;;1.50;1.50;;;;;;;;5092668;28;8807;-42
2021/06/11 00:43:55;;;;;;;;;1.67;1.00;;;;;;;;5089786;27;9530;-43
2021/06/11 00:46:21;;;;;;;;;2.00;2.00;;;;;;;;5088756;28;9607;-43
2021/06/11 00:48:46;;;;;;;;;0.67;0.67;;;;;;;;5093200;28;8775;-42
2021/06/11 00:51:11;;;;;;;;;1.67;1.67;;;;;;;;5096617;27;8816;-43
2021/06/11 00:53:36;;;;;;;;;2.00;2.00;;;;;;;;5098721;28;8861;-42
2021/06/11 00:56:01;;;;;;;;;0.33;0.33;;;;;;;;5095408;28;8785;-43
2021/06/11 00:58:27;;;;;;;;;1.33;1.33;;;;;;;;5095837;27;8806;-43
2021/06/11 01:00:52;;;;;;;;;2.00;2.00;;;;;;;;5087527;28;9510;-43
2021/06/11 01:03:18;;;;;;;;;2.00;2.00;;;;;;;;5078293;28;8797;-43
2021/06/11 01:05:44;;;;;;;;;2.00;1.33;;;;;;;;5095010;27;8796;-43
2021/06/11 01:08:14;;;;;;;;;0.33;0.33;;;;;;;;5098002;28;8821;-43
2021/06/11 01:10:40;;;;;;;;;1.75;1.75;;;;;;;;5093791;27;8814;-43
2021/06/11 01:13:06;;;;;;;;;2.00;2.00;;;;;;;;5084902;28;9598;-43
2021/06/11 01:15:31;;;;;;;;;2.00;2.00;;;;;;;;5073736;28;8778;-43
2021/06/11 01:17:57;;;;;;;;;3.00;3.00;;;;;;;;5079808;28;9552;-43
2021/06/11 01:20:23;;;;;;;;;1.33;1.33;;;;;;;;5077777;28;8802;-43
2021/06/11 01:23:06;;;;;;;;;2.67;2.00;;;;;;;;5075176;28;8789;-42
2021/06/11 01:25:51;;;;;;;;;2.25;2.25;;;;;;;;5078004;28;11461;-43
2021/06/11 01:28:17;;;;;;;;;1.75;1.75;;;;;;;;5085476;28;8798;-43
2021/06/11 01:30:42;;;;;;;;;1.50;1.50;;;;;;;;5094679;27;8752;-43
2021/06/11 01:33:09;;;;;;;;;3.33;2.67;;;;;;;;5094076;28;8819;-43
2021/06/11 01:35:40;;;;;;;;;2.00;2.00;;;;;;;;5076677;28;8790;-43
2021/06/11 01:38:07;;;;;;;;;1.75;1.75;;;;;;;;5072711;28;8768;-43
2021/06/11 01:40:33;;;;;;;;;1.50;1.50;;;;;;;;5074585;28;8793;-43
2021/06/11 01:43:01;;;;;;;;;1.50;1.50;;;;;;;;5073190;28;8777;-43
2021/06/11 01:45:26;;;;;;;;;2.00;2.00;;;;;;;;5071923;28;8839;-43
2021/06/11 01:47:52;;;;;;;;;1.33;1.33;;;;;;;;5074838;28;8883;-43
2021/06/11 01:50:22;;;;;;;;;1.67;1.67;;;;;;;;5094800;28;8820;-42
2021/06/11 01:52:48;;;;;;;;;1.75;1.75;;;;;;;;5083217;28;11214;-43
2021/06/11 01:55:14;;;;;;;;;1.67;1.67;;;;;;;;5075230;28;8789;-43
2021/06/11 01:57:41;;;;;;;;;2.50;2.50;;;;;;;;5079807;28;8800;-43
2021/06/11 02:00:07;;;;;;;;;1.75;1.75;;;;;;;;5095132;28;8778;-42
2021/06/11 02:02:33;;;;;;;;;1.00;1.00;;;;;;;;5096832;27;8940;-42
2021/06/11 02:04:58;;;;;;;;;1.75;1.75;;;;;;;;5094695;27;8851;-43
2021/06/11 02:07:24;;;;;;;;;2.00;1.67;;;;;;;;5097706;27;8778;-43
2021/06/11 02:09:50;;;;;;;;;2.00;2.00;;;;;;;;5095378;28;8813;-43
2021/06/11 02:12:16;;;;;;;;;2.33;2.33;;;;;;;;5096139;28;8784;-43
2021/06/11 02:14:42;;;;;;;;;2.50;1.50;;;;;;;;5094397;28;8776;-43
2021/06/11 02:17:08;;;;;;;;;1.33;1.33;;;;;;;;5096655;28;8778;-43
2021/06/11 02:19:34;;;;;;;;;1.50;1.50;;;;;;;;5075192;27;8780;-43
2021/06/11 02:21:59;;;;;;;;;2.00;1.33;;;;;;;;5098166;27;8776;-43
2021/06/11 02:24:24;;;;;;;;;1.33;1.33;;;;;;;;5089831;27;10858;-43
2021/06/11 02:26:49;;;;;;;;;2.67;2.33;;;;;;;;5099923;27;9703;-43
2021/06/11 02:29:15;;;;;;;;;1.33;1.33;;;;;;;;5098646;27;8853;-43
2021/06/11 02:31:40;;;;;;;;;2.00;1.67;;;;;;;;5094173;27;8782;-43
2021/06/11 02:34:07;;;;;;;;;1.33;1.33;;;;;;;;5096702;28;8785;-43
2021/06/11 02:36:33;;;;;;;;;1.50;1.50;;;;;;;;5091698;27;8814;-43
2021/06/11 02:38:58;;;;;;;;;3.00;3.00;;;;;;;;5094981;28;8894;-42
2021/06/11 02:41:25;;;;;;;;;3.00;3.00;;;;;;;;5091996;27;8785;-43
2021/06/11 02:43:51;;;;;;;;;1.75;1.75;;;;;;;;5091671;27;8780;-43
2021/06/11 02:46:38;;;;;;;;;2.25;2.25;;;;;;;;5093526;28;8816;-43
2021/06/11 02:49:11;;;;;;;;;2.75;2.75;;;;;;;;5094369;27;8875;-43
2021/06/11 02:51:38;;;;;;;;;2.50;2.50;;;;;;;;5091104;28;8771;-43
2021/06/11 02:54:04;;;;;;;;;2.00;2.00;;;;;;;;5095877;28;8880;-43
2021/06/11 02:56:32;;;;;;;;;2.50;2.50;;;;;;;;5093939;28;9287;-43
2021/06/11 02:59:01;;;;;;;;;2.50;2.50;;;;;;;;5095015;27;8811;-43
2021/06/11 03:01:27;;;;;;;;;1.75;1.75;;;;;;;;5093835;28;8768;-43
2021/06/11 03:03:52;;;;;;;;;2.25;2.25;;;;;;;;5094629;27;8784;-43
2021/06/11 03:06:19;;;;;;;;;2.00;2.00;;;;;;;;5090591;28;8829;-43
2021/06/11 03:08:46;;;;;;;;;2.50;2.50;;;;;;;;5080602;28;8774;-42
2021/06/11 03:11:13;;;;;;;;;2.50;2.50;;;;;;;;5076876;28;8766;-42
2021/06/11 03:13:39;;;;;;;;;1.75;1.75;;;;;;;;5085394;27;8779;-44
2021/06/11 03:16:05;;;;;;;;;3.00;2.25;;;;;;;;5096816;27;8773;-43
2021/06/11 03:19:02;;;;;;;;;3.00;3.00;;;;;;;;5080518;27;8794;-43
2021/06/11 03:21:31;;;;;;;;;3.00;3.00;;;;;;;;5062866;28;8810;-43
2021/06/11 03:24:18;;;;;;;;;2.75;2.25;;;;;;;;5093755;27;8777;-43
2021/06/11 03:26:48;;;;;;;;;2.75;2.75;;;;;;;;5092960;28;9524;-42
2021/06/11 03:29:14;;;;;;;;;3.00;3.00;;;;;;;;5097654;27;9548;-43
2021/06/11 03:31:41;;;;;;;;;1.50;1.50;;;;;;;;5087627;28;9776;-43
2021/06/11 03:34:11;;;;;;;;;4.50;4.00;;;;;;;;5080808;28;9565;-43
2021/06/11 03:36:39;;;;;;;;;2.50;2.50;;;;;;;;5090263;28;8788;-43
2021/06/11 03:39:09;;;;;;;;;2.00;2.00;;;;;;;;5093717;27;8858;-41
2021/06/11 03:41:36;;;;;;;;;2.50;2.50;;;;;;;;5073402;28;8816;-42
2021/06/11 03:44:03;;;;;;;;;2.25;2.25;;;;;;;;5069709;28;8788;-43
2021/06/11 03:46:31;;;;;;;;;2.25;2.25;;;;;;;;5075497;28;8829;-43
2021/06/11 03:48:57;;;;;;;;;2.50;2.50;;;;;;;;5075634;28;8758;-43
2021/06/11 03:51:25;;;;;;;;;2.25;2.25;;;;;;;;5073997;28;8869;-43
2021/06/11 03:53:51;;;;;;;;;4.00;4.00;;;;;;;;5077190;28;8794;-43
2021/06/11 03:56:18;;;;;;;;;2.33;2.33;;;;;;;;5089781;28;8770;-43
2021/06/11 03:58:44;;;;;;;;;3.00;3.00;;;;;;;;5077918;28;8892;-43
2021/06/11 04:01:27;;;;;;;;;1.67;1.67;;;;;;;;5074722;28;8916;-43
2021/06/11 04:03:54;;;;;;;;;2.25;2.25;;;;;;;;5074480;28;8792;-43
2021/06/11 04:06:26;;;;;;;;;1.50;1.50;;;;;;;;5073975;28;8984;-43
2021/06/11 04:08:56;;;;;;;;;1.50;1.50;;;;;;;;5076823;28;8758;-43
2021/06/11 04:11:29;;;;;;;;;2.50;2.50;;;;;;;;5070800;28;9403;-43
2021/06/11 04:13:56;;;;;;;;;2.50;2.50;;;;;;;;5071851;28;8817;-43
2021/06/11 04:16:28;;;;;;;;;2.50;2.50;;;;;;;;5074083;28;8793;-43
2021/06/11 04:18:54;;;;;;;;;2.50;2.50;;;;;;;;5084906;28;8827;-43
2021/06/11 04:21:21;;;;;;;;;1.50;1.50;;;;;;;;5090381;28;8781;-43
2021/06/11 04:23:47;;;;;;;;;2.50;2.50;;;;;;;;5081172;28;8805;-43
2021/06/11 04:26:13;;;;;;;;;1.33;1.33;;;;;;;;5093552;27;8922;-43
2021/06/11 04:28:39;;;;;;;;;2.50;2.00;;;;;;;;5082769;27;9552;-43
2021/06/11 04:31:04;;;;;;;;;2.50;2.50;;;;;;;;5076810;28;8802;-43
2021/06/11 04:33:30;;;;;;;;;2.00;1.67;;;;;;;;5076455;28;8788;-43
2021/06/11 04:35:55;;;;;;;;;1.67;1.67;;;;;;;;5075754;28;8782;-43
2021/06/11 04:38:21;;;;;;;;;2.33;2.33;;;;;;;;5079328;28;8789;-43
2021/06/11 04:40:46;;;;;;;;;2.33;2.33;;;;;;;;5075792;28;8806;-43
2021/06/11 04:43:12;;;;;;;;;2.33;2.33;;;;;;;;5074044;28;8998;-43
2021/06/11 04:45:37;;;;;;;;;0.33;0.33;;;;;;;;5079080;28;8918;-43
2021/06/11 04:48:03;;;;;;;;;3.00;2.00;;;;;;;;5075855;28;8820;-44
2021/06/11 04:50:29;;;;;;;;;2.67;2.33;;;;;;;;5097114;27;9343;-44
2021/06/11 04:52:54;;;;;;;;;1.67;1.67;;;;;;;;5098907;28;8900;-43
2021/06/11 04:55:19;;;;;;;;;2.33;2.33;;;;;;;;5086369;28;8803;-43
2021/06/11 04:57:44;;;;;;;;;2.00;2.00;;;;;;;;5078103;28;9262;-44
2021/06/11 05:00:10;;;;;;;;;2.00;2.00;;;;;;;;5075816;28;8886;-43
2021/06/11 05:02:35;;;;;;;;;3.00;3.00;;;;;;;;5076093;28;8792;-43
2021/06/11 05:05:00;;;;;;;;;3.67;3.67;;;;;;;;5072834;28;8783;-43
2021/06/11 05:07:25;;;;;;;;;2.33;2.33;;;;;;;;5075314;28;8817;-43
2021/06/11 05:09:51;;;;;;;;;2.33;2.33;;;;;;;;5075202;28;8875;-43
2021/06/11 05:12:16;;;;;;;;;1.33;1.33;;;;;;;;5078392;27;8955;-43
2021/06/11 05:14:41;;;;;;;;;2.33;2.33;;;;;;;;5104564;27;8879;-43
2021/06/11 05:17:06;;;;;;;;;2.33;2.33;;;;;;;;5101182;27;8786;-43
2021/06/11 05:19:32;;;;;;;;;4.67;3.00;;;;;;;;5094628;27;8776;-43
2021/06/11 05:21:57;;;;;;;;;2.00;2.00;;;;;;;;5096202;27;8776;-43
2021/06/11 05:24:22;;;;;;;;;2.33;2.33;;;;;;;;5091708;27;8819;-43
2021/06/11 05:26:48;;;;;;;;;2.33;2.33;;;;;;;;5075701;28;8930;-43
2021/06/11 05:29:13;;;;;;;;;1.67;1.67;;;;;;;;5073523;28;9699;-43
2021/06/11 05:31:38;;;;;;;;;2.33;2.33;;;;;;;;5087789;27;8765;-43
2021/06/11 05:34:03;;;;;;;;;4.00;3.00;;;;;;;;5094124;27;8800;-43
2021/06/11 05:36:29;;;;;;;;;1.33;1.33;;;;;;;;5089852;28;8904;-43
2021/06/11 05:38:54;;;;;;;;;3.33;2.33;;;;;;;;5076918;28;8806;-43
2021/06/11 05:41:19;;;;;;;;;3.33;3.33;;;;;;;;5076700;28;8817;-43
2021/06/11 05:43:45;;;;;;;;;0.33;0.33;;;;;;;;5071829;28;8866;-43
2021/06/11 05:46:11;;;;;;;;;3.00;3.00;;;;;;;;5071399;28;9455;-43
2021/06/11 05:48:39;;;;;;;;;2.00;2.00;;;;;;;;5072652;28;8817;-42
2021/06/11 05:51:04;;;;;;;;;2.50;2.50;;;;;;;;5077024;28;8814;-40
2021/06/11 05:53:29;;;;;;;;;1.00;1.00;;;;;;;;5094925;27;8835;-42
2021/06/11 05:55:55;;;;;;;;;1.33;1.33;;;;;;;;5091233;28;8834;-41
2021/06/11 05:58:20;;;;;;;;;2.33;2.33;;;;;;;;5092193;27;8832;-42
2021/06/11 06:00:45;;;;;;;;;3.50;3.50;;;;;;;;5096004;28;8955;-42
2021/06/11 06:03:10;;;;;;;;;2.33;2.00;;;;;;;;5092665;27;8793;-42
2021/06/11 06:05:36;;;;;;;;;2.33;2.33;;;;;;;;5081051;28;9502;-42
2021/06/11 06:08:01;;;;;;;;;1.67;1.67;;;;;;;;5087607;28;8829;-42
2021/06/11 06:10:26;;;;;;;;;3.00;3.00;;;;;;;;5094563;28;8778;-42
2021/06/11 06:12:52;;;;;;;;;3.33;3.00;;;;;;;;5093119;28;8765;-42
2021/06/11 06:15:17;;;;;;;;;2.25;2.25;;;;;;;;5095510;28;8783;-42
2021/06/11 06:17:42;;;;;;;;;1.00;1.00;;;;;;;;5099312;27;9563;-42
2021/06/11 06:20:08;;;;;;;;;2.33;2.33;;;;;;;;5082838;28;8784;-42
2021/06/11 06:22:34;;;;;;;;;2.50;2.50;;;;;;;;5083775;28;8902;-43
2021/06/11 06:24:59;;;;;;;;;2.67;2.33;;;;;;;;5103086;28;8871;-42
2021/06/11 06:27:24;;;;;;;;;1.67;1.67;;;;;;;;5096104;27;8800;-42
2021/06/11 06:29:49;;;;;;;;;2.00;2.00;;;;;;;;5098663;28;8820;-41
2021/06/11 06:32:15;;;;;;;;;3.00;2.33;;;;;;;;5078674;28;8867;-41
2021/06/11 06:34:40;;;;;;;;;3.00;3.00;;;;;;;;5079042;28;8805;-41
2021/06/11 06:37:06;;;;;;;;;2.00;2.00;;;;;;;;5080915;28;8816;-41
2021/06/11 06:39:32;;;;;;;;;1.75;1.75;;;;;;;;5082930;28;8746;-41
2021/06/11 06:41:58;;;;;;;;;0.67;0.67;;;;;;;;5082292;28;8789;-41
2021/06/11 06:44:23;;;;;;;;;2.50;2.50;;;;;;;;5082991;28;8797;-41
2021/06/11 06:46:48;;;;;;;;;2.00;2.00;;;;;;;;5090118;27;8962;-48
2021/06/11 06:49:14;;;;;;;;;2.33;2.33;;;;;;;;5096967;28;8923;-41
2021/06/11 06:51:39;;;;;;;;;1.33;1.33;;;;;;;;5094967;27;9540;-41
2021/06/11 06:54:04;;;;;;;;;2.33;2.33;;;;;;;;5100041;28;8891;-39
2021/06/11 06:56:29;;;;;;;;;2.00;2.00;;;;;;;;5100750;28;8947;-41
2021/06/11 06:58:55;;;;;;;;;2.00;2.00;;;;;;;;5091989;28;8815;-41
2021/06/11 07:01:24;;;;;;;;;2.33;2.33;;;;;;;;5095639;27;8797;-41
2021/06/11 07:03:49;;;;;;;;;2.25;2.25;;;;;;;;5095727;28;11440;-41
2021/06/11 07:06:14;;;;;;;;;2.67;2.00;;;;;;;;5098813;27;8772;-41
2021/06/11 07:08:40;;;;;;;;;3.00;3.00;;;;;;;;5097771;28;8855;-41
2021/06/11 07:11:05;;;;;;;;;3.00;3.00;;;;;;;;5099932;27;8803;-41
2021/06/11 07:13:33;;;;;;;;;1.67;1.67;;;;;;;;5089738;27;8805;-41
2021/06/11 07:15:59;;;;;;;;;3.00;3.00;;;;;;;;5072923;28;9484;-41
2021/06/11 07:18:24;;;;;;;;;3.00;3.00;;;;;;;;5077504;28;8802;-41
2021/06/11 07:20:50;;;;;;;;;1.33;1.33;;;;;;;;5076779;28;8862;-41
2021/06/11 07:23:15;;;;;;;;;2.00;2.00;;;;;;;;5078368;28;8796;-41
2021/06/11 07:25:40;;;;;;;;;3.00;3.00;;;;;;;;5076006;28;8830;-41
2021/06/11 07:28:05;;;;;;;;;2.00;2.00;;;;;;;;5085684;28;8794;-41
2021/06/11 07:30:31;;;;;;;;;3.00;2.00;;;;;;;;5093932;28;8782;-41
2021/06/11 07:32:56;;;;;;;;;2.00;2.00;;;;;;;;5096367;28;8808;-41
2021/06/11 07:35:21;;;;;;;;;2.00;2.00;;;;;;;;5094809;28;8776;-41
2021/06/11 07:37:47;;;;;;;;;2.00;2.00;;;;;;;;5096903;27;9007;-41
2021/06/11 07:40:12;;;;;;;;;3.67;3.67;;;;;;;;5093536;28;9331;-41
2021/06/11 07:42:37;;;;;;;;;2.00;2.00;;;;;;;;5094492;28;8812;-41
2021/06/11 07:45:05;;;;;;;;;3.00;3.00;;;;;;;;5102515;28;8905;-41
2021/06/11 07:47:30;;;;;;;;;2.00;2.00;;;;;;;;5090978;28;8809;-42
2021/06/11 07:49:55;;;;;;;;;2.00;2.00;;;;;;;;5098958;28;8814;-41
2021/06/11 07:52:20;;;;;;;;;2.67;2.67;;;;;;;;5094599;28;8787;-41
2021/06/11 07:54:46;;;;;;;;;2.00;2.00;;;;;;;;5089298;28;9023;-41
2021/06/11 07:57:11;;;;;;;;;2.00;2.00;;;;;;;;5074681;28;9601;-41
2021/06/11 07:59:36;;;;;;;;;2.00;2.00;;;;;;;;5080517;28;8768;-41
2021/06/11 08:02:02;;;;;;;;;2.33;2.33;;;;;;;;5095364;28;8914;-41
2021/06/11 08:04:27;;;;;;;;;2.00;2.00;;;;;;;;5100426;28;8839;-41
2021/06/11 08:06:52;;;;;;;;;2.00;2.00;;;;;;;;5100457;28;9623;-41
2021/06/11 08:09:18;;;;;;;;;1.00;1.00;;;;;;;;5101182;28;8766;-41
2021/06/11 08:11:43;;;;;;;;;1.00;1.00;;;;;;;;5084582;28;8792;-41
2021/06/11 08:14:08;;;;;;;;;2.33;2.33;;;;;;;;5100736;27;9502;-41
2021/06/11 08:16:33;;;;;;;;;2.67;2.67;;;;;;;;5101905;28;9536;-41
2021/06/11 08:18:58;;;;;;;;;2.33;2.33;;;;;;;;5097385;27;8766;-41
2021/06/11 08:21:24;;;;;;;;;2.00;2.00;;;;;;;;5086716;28;9491;-41
2021/06/11 08:23:49;;;;;;;;;2.00;2.00;;;;;;;;5082237;28;8887;-41
2021/06/11 08:26:14;;;;;;;;;2.00;2.00;;;;;;;;5080405;28;8793;-41
2021/06/11 08:28:39;;;;;;;;;1.67;1.67;;;;;;;;5083970;28;9586;-41
2021/06/11 08:31:05;;;;;;;;;3.00;3.00;;;;;;;;5085103;28;9312;-41
2021/06/11 08:33:30;;;;;;;;;2.00;2.00;;;;;;;;5086446;28;8777;-41
2021/06/11 08:35:55;;;;;;;;;2.00;2.00;;;;;;;;5102130;27;8849;-41
2021/06/11 08:38:20;;;;;;;;;1.00;1.00;;;;;;;;5082527;28;8786;-41
2021/06/11 08:40:47;;;;;;;;;1.00;1.00;;;;;;;;5084942;28;8791;-41
2021/06/11 08:43:14;;;;;;;;;1.25;1.25;;;;;;;;5080065;28;8880;-41
2021/06/11 08:45:40;;;;;;;;;2.00;2.00;;;;;;;;5078540;28;8779;-42
2021/06/11 08:48:05;;;;;;;;;2.00;2.00;;;;;;;;5084218;28;8828;-41
2021/06/11 08:50:32;;;;;;;;;2.00;2.00;;;;;;;;5104910;27;8852;-41
2021/06/11 08:52:59;;;;;;;;;2.00;2.00;;;;;;;;5084669;28;8790;-42
2021/06/11 08:55:25;;;;;;;;;1.00;1.00;;;;;;;;5076611;28;8774;-41
2021/06/11 08:57:50;;;;;;;;;2.00;2.00;;;;;;;;5085178;28;8780;-41
2021/06/11 09:00:16;;;;;;;;;1.00;1.00;;;;;;;;5096304;27;8842;-41
2021/06/11 09:02:59;;;;;;;;;2.00;2.00;;;;;;;;5079094;28;8806;-42
2021/06/11 09:05:25;;;;;;;;;1.00;1.00;;;;;;;;5078918;28;8932;-41
2021/06/11 09:07:51;;;;;;;;;1.00;1.00;;;;;;;;5081724;28;8821;-41
2021/06/11 09:10:22;;;;;;;;;2.00;2.00;;;;;;;;5077855;28;8785;-41
2021/06/11 09:12:47;;;;;;;;;2.00;2.00;;;;;;;;5083097;28;8919;-42
2021/06/11 09:15:14;;;;;;;;;1.00;1.00;;;;;;;;5096073;27;8900;-41
2021/06/11 09:17:40;;;;;;;;;1.00;1.00;;;;;;;;5100112;28;8777;-41
2021/06/11 09:20:16;;;;;;;;;1.00;1.00;;;;;;;;5099458;27;8880;-41
2021/06/11 09:22:50;;;;;;;;;2.00;2.00;;;;;;;;5081486;28;8791;-41
2021/06/11 09:25:28;;;;;;;;;1.00;1.00;;;;;;;;5078780;28;8758;-41
2021/06/11 09:27:55;;;;;;;;;1.00;1.00;;;;;;;;5076946;28;8793;-42
2021/06/11 09:30:27;;;;;;;;;1.00;1.00;;;;;;;;5077590;28;9198;-41
2021/06/11 09:32:56;;;;;;;;;1.75;1.75;;;;;;;;5077160;28;8769;-41
2021/06/11 09:35:27;;;;;;;;;1.00;1.00;;;;;;;;5080058;28;9517;-41
2021/06/11 09:38:04;;;;;;;;;1.25;1.25;;;;;;;;5076182;28;8782;-42
2021/06/11 09:40:31;;;;;;;;;1.50;1.50;;;;;;;;5075153;28;9706;-42
2021/06/11 09:43:00;;;;;;;;;1.00;1.00;;;;;;;;5086453;28;8877;-41
2021/06/11 09:45:25;;;;;;;;;1.00;1.00;;;;;;;;5102079;28;8717;-41
2021/06/11 09:47:53;;;;;;;;;1.00;1.00;;;;;;;;5099052;27;8846;-41
2021/06/11 09:50:33;;;;;;;;;1.00;1.00;;;;;;;;5098638;28;8772;-41
2021/06/11 09:53:00;;;;;;;;;0.50;0.50;;;;;;;;5096517;28;8767;-41
2021/06/11 09:55:36;;;;;;;;;1.00;1.00;;;;;;;;5090311;28;8750;-41
2021/06/11 09:58:20;;;;;;;;;1.00;1.00;;;;;;;;5080015;28;8963;-41
2021/06/11 10:00:54;;;;;;;;;1.00;1.00;;;;;;;;5078869;28;9579;-41
2021/06/11 10:03:25;;;;;;;;;1.75;1.00;;;;;;;;5075934;28;8773;-42
2021/06/11 10:05:52;;;;;;;;;1.25;1.25;;;;;;;;5078547;28;8832;-41
2021/06/11 10:08:17;;;;;;;;;2.00;1.00;;;;;;;;5080888;28;8827;-41
2021/06/11 10:10:44;;;;;;;;;1.33;1.33;;;;;;;;5080064;28;8888;-41
2021/06/11 10:13:10;;;;;;;;;1.00;1.00;;;;;;;;5091150;27;8935;-41
2021/06/11 10:15:35;;;;;;;;;1.00;1.00;;;;;;;;5099846;27;8786;-41
2021/06/11 10:18:02;;;;;;;;;1.00;1.00;;;;;;;;5084479;28;8813;-41
2021/06/11 10:20:27;;;;;;;;;1.00;1.00;;;;;;;;5080869;28;8874;-41
2021/06/11 10:22:53;;;;;;;;;0.00;0.00;;;;;;;;5081501;28;9530;-41
2021/06/11 10:25:18;;;;;;;;;1.00;1.00;;;;;;;;5077101;28;8818;-41
2021/06/11 10:27:44;;;;;;;;;1.00;1.00;;;;;;;;5080089;28;8793;-41
2021/06/11 10:30:10;;;;;;;;;0.00;0.00;;;;;;;;5076012;28;8785;-41
2021/06/11 10:32:39;;;;;;;;;0.00;0.00;;;;;;;;5100187;28;10031;-41
2021/06/11 10:35:05;;;;;;;;;1.00;1.00;;;;;;;;5081757;28;8788;-41
2021/06/11 10:37:31;;;;;;;;;0.75;0.75;;;;;;;;5084576;28;8790;-41
2021/06/11 10:40:12;;;;;;;;;0.00;0.00;;;;;;;;5083425;27;8892;-41
2021/06/11 10:42:37;;;;;;;;;0.00;0.00;;;;;;;;5090930;28;10585;-41
2021/06/11 10:45:02;;;;;;;;;1.00;1.00;;;;;;;;5083580;28;8896;-41
2021/06/11 10:47:28;;;;;;;;;0.00;0.00;;;;;;;;5083801;28;8802;-42
2021/06/11 10:50:02;;;;;;;;;0.67;0.67;;;;;;;;5080137;28;8766;-41
2021/06/11 10:52:37;;;;;;;;;0.50;0.50;;;;;;;;5082519;28;8838;-42
2021/06/11 10:55:18;;;;;;;;;1.00;0.50;;;;;;;;5082353;28;8849;-42
2021/06/11 10:57:44;;;;;;;;;0.50;0.50;;;;;;;;5077296;28;8774;-41
2021/06/11 11:00:36;;;;;;;;;1.00;1.00;;;;;;;;5077989;28;8861;-41
2021/06/11 11:03:02;;;;;;;;;1.00;1.00;;;;;;;;5075234;28;9335;-41
2021/06/11 11:05:28;;;;;;;;;1.00;1.00;;;;;;;;5093552;28;9629;-41
2021/06/11 11:07:54;;;;;;;;;1.00;1.00;;;;;;;;5091926;28;8844;-41
2021/06/11 11:10:46;;;;;;;;;0.33;0.33;;;;;;;;5094740;28;8783;-41
2021/06/11 11:13:19;;;;;;;;;0.00;0.00;;;;;;;;5094838;28;8794;-42
2021/06/11 11:15:45;;;;;;;;;1.00;1.00;;;;;;;;5095670;28;8763;-41
2021/06/11 11:18:12;;;;;;;;;1.00;1.00;;;;;;;;5097315;27;8808;-41
2021/06/11 11:20:38;;;;;;;;;0.00;0.00;;;;;;;;5105091;28;8898;-41
2021/06/11 11:23:13;;;;;;;;;0.50;0.50;;;;;;;;5094799;28;8772;-41
2021/06/11 11:25:39;;;;;;;;;0.00;0.00;;;;;;;;5095676;28;8858;-41
2021/06/11 11:28:06;;;;;;;;;1.50;1.25;;;;;;;;5095307;28;8802;-42
2021/06/11 11:30:33;;;;;;;;;1.00;0.00;;;;;;;;5096652;28;8722;-41
2021/06/11 11:32:59;;;;;;;;;1.00;1.00;;;;;;;;5098070;27;8802;-41
2021/06/11 11:35:26;;;;;;;;;0.25;0.25;;;;;;;;5094695;28;8784;-41
2021/06/11 11:37:52;;;;;;;;;0.00;0.00;;;;;;;;5093411;27;8766;-41
2021/06/11 11:40:18;;;;;;;;;0.25;0.25;;;;;;;;5091934;28;8776;-42
2021/06/11 11:42:44;;;;;;;;;0.75;0.75;;;;;;;;5098327;28;8789;-41
2021/06/11 11:45:09;;;;;;;;;0.33;0.33;;;;;;;;5100362;28;8765;-41
2021/06/11 11:47:35;;;;;;;;;0.00;0.00;;;;;;;;5102453;27;8836;-41
2021/06/11 11:50:09;;;;;;;;;0.67;0.67;;;;;;;;5088635;28;9517;-42
2021/06/11 11:52:35;;;;;;;;;0.00;0.00;;;;;;;;5089470;27;8826;-42
2021/06/11 11:55:01;;;;;;;;;0.33;0.33;;;;;;;;5085656;28;8786;-41
2021/06/11 11:57:27;;;;;;;;;0.00;0.00;;;;;;;;5076213;28;8987;-41
2021/06/11 11:59:52;;;;;;;;;0.00;0.00;;;;;;;;5076211;28;11433;-42
2021/06/11 12:02:18;;;;;;;;;0.00;0.00;;;;;;;;5069398;28;11412;-41
2021/06/11 12:04:43;;;;;;;;;1.00;1.00;;;;;;;;5084523;27;8789;-41
2021/06/11 12:07:08;;;;;;;;;0.00;0.00;;;;;;;;5094176;27;8800;-41
2021/06/11 12:09:33;;;;;;;;;0.67;0.00;;;;;;;;5086352;28;8804;-41
2021/06/11 12:12:00;;;;;;;;;1.00;1.00;;;;;;;;5075092;28;8805;-40
2021/06/11 12:14:25;;;;;;;;;1.25;1.00;;;;;;;;5075067;28;8785;-41
2021/06/11 12:16:50;;;;;;;;;0.00;0.00;;;;;;;;5092905;28;8804;-41
2021/06/11 12:19:15;;;;;;;;;0.00;0.00;;;;;;;;5092725;28;8806;-41
2021/06/11 12:21:41;;;;;;;;;1.00;1.00;;;;;;;;5096417;27;8908;-41
2021/06/11 12:24:06;;;;;;;;;1.00;1.00;;;;;;;;5095260;28;8787;-41
2021/06/11 12:26:31;;;;;;;;;0.00;0.00;;;;;;;;5102223;27;8837;-41
2021/06/11 12:28:56;;;;;;;;;0.67;0.67;;;;;;;;5101484;28;8939;-42
2021/06/11 12:31:22;;;;;;;;;0.00;0.00;;;;;;;;5087502;28;8781;-41
2021/06/11 12:33:47;;;;;;;;;0.67;0.67;;;;;;;;5079405;28;9501;-41
2021/06/11 12:36:12;;;;;;;;;0.00;0.00;;;;;;;;5079703;28;8810;-41
2021/06/11 12:38:37;;;;;;;;;0.00;0.00;;;;;;;;5078012;28;8805;-41
2021/06/11 12:41:04;;;;;;;;;0.33;0.00;;;;;;;;5082595;28;8786;-40
2021/06/11 12:44:15;;;;;;;;;0.00;0.00;;;;;;;;5075067;28;8754;-41
2021/06/11 12:46:18;;;;;;;;;0.00;0.00;;;;;;;;5080444;28;9634;-41
2021/06/11 12:48:44;;;;;;;;;0.50;0.00;;;;;;;;5084457;27;8850;-40
2021/06/11 12:51:09;;;;;;;;;1.00;1.00;;;;;;;;5099339;27;8783;-41
2021/06/11 12:53:35;;;;;;;;;0.00;0.00;;;;;;;;5080605;28;8779;-41
2021/06/11 12:56:00;;;;;;;;;0.00;0.00;;;;;;;;5076223;28;9525;-41
2021/06/11 12:58:25;;;;;;;;;1.00;1.00;;;;;;;;5074944;28;8785;-47
2021/06/11 13:00:50;;;;;;;;;0.33;0.33;;;;;;;;5068438;28;8788;-39
2021/06/11 13:03:16;;;;;;;;;1.00;1.00;;;;;;;;5024337;27;8798;-44
2021/06/11 13:05:41;;;;;;;;;1.00;1.00;;;;;;;;5079413;28;9196;-34
2021/06/11 13:08:13;;;;;;;;;2.00;2.00;;;;;;;;5069757;28;8811;-40
2021/06/11 13:10:38;;;;;;;;;1.25;1.25;;;;;;;;5092751;27;8916;-40
2021/06/11 13:13:03;;;;;;;;;2.00;2.00;;;;;;;;5097275;28;9716;-39
2021/06/11 13:15:28;;;;;;;;;3.00;3.00;;;;;;;;5095171;27;8772;-38
2021/06/11 13:17:54;;;;;;;;;2.33;2.33;;;;;;;;5094279;27;8787;-40
2021/06/11 13:20:19;;;;;;;;;1.00;1.00;;;;;;;;5094785;27;8910;-43
2021/06/11 13:22:44;;;;;;;;;1.00;1.00;;;;;;;;5093986;28;8931;-37
2021/06/11 13:25:10;;;;;;;;;1.67;1.67;;;;;;;;5071387;28;8802;-37
2021/06/11 13:27:35;;;;;;;;;2.00;2.00;;;;;;;;5075904;28;8813;-37
2021/06/11 13:30:00;;;;;;;;;1.00;1.00;;;;;;;;5073358;28;8786;-39
2021/06/11 13:32:26;;;;;;;;;1.00;1.00;;;;;;;;5076742;28;8924;-38
2021/06/11 13:34:51;;;;;;;;;1.33;1.33;;;;;;;;5073680;28;8757;-39
2021/06/11 13:37:16;;;;;;;;;0.33;0.33;;;;;;;;5077427;28;8786;-39
2021/06/11 13:39:41;;;;;;;;;0.33;0.33;;;;;;;;5088885;27;8866;-39
2021/06/11 13:42:07;;;;;;;;;1.00;1.00;;;;;;;;5079599;28;8782;-39
2021/06/11 13:44:32;;;;;;;;;1.33;1.33;;;;;;;;5071768;28;8805;-39
2021/06/11 13:46:57;;;;;;;;;1.67;1.67;;;;;;;;5071691;28;8862;-39
2021/06/11 13:49:23;;;;;;;;;2.00;2.00;;;;;;;;5074677;28;8825;-39
2021/06/11 13:51:48;;;;;;;;;2.00;2.00;;;;;;;;5090825;28;8768;-39
2021/06/11 13:54:13;;;;;;;;;2.00;2.00;;;;;;;;5079502;28;8825;-39
2021/06/11 13:56:39;;;;;;;;;2.00;1.33;;;;;;;;5076222;28;8907;-39
2021/06/11 13:59:04;;;;;;;;;0.67;0.67;;;;;;;;5073160;28;8762;-39
2021/06/11 14:01:29;;;;;;;;;1.00;1.00;;;;;;;;5074987;28;8796;-37
2021/06/11 14:03:54;;;;;;;;;0.33;0.33;;;;;;;;5071762;28;8813;-38
2021/06/11 14:06:20;;;;;;;;;0.33;0.33;;;;;;;;5074807;28;8769;-38
2021/06/11 14:08:45;;;;;;;;;0.33;0.33;;;;;;;;5075206;28;8835;-38
2021/06/11 14:11:10;;;;;;;;;0.00;0.00;;;;;;;;5076282;28;8796;-39
2021/06/11 14:13:35;;;;;;;;;1.00;1.00;;;;;;;;5080237;28;9558;-38
2021/06/11 14:16:01;;;;;;;;;1.67;1.67;;;;;;;;5095322;28;8856;-40
2021/06/11 14:18:26;;;;;;;;;1.00;1.00;;;;;;;;5080735;28;8781;-39
2021/06/11 14:20:52;;;;;;;;;1.00;1.00;;;;;;;;5081296;28;8790;-39
2021/06/11 14:23:17;;;;;;;;;0.50;0.50;;;;;;;;5077711;28;8792;-39
2021/06/11 14:25:44;;;;;;;;;2.67;1.33;;;;;;;;5075916;28;8812;-39
2021/06/11 14:28:10;;;;;;;;;1.00;1.00;;;;;;;;5076798;28;8820;-38
2021/06/11 14:30:35;;;;;;;;;0.33;0.33;;;;;;;;5075243;28;9863;-38
2021/06/11 14:33:01;;;;;;;;;0.67;0.67;;;;;;;;5077479;28;8770;-38
2021/06/11 14:35:26;;;;;;;;;0.33;0.33;;;;;;;;5079510;28;8777;-38
2021/06/11 14:37:51;;;;;;;;;1.00;1.00;;;;;;;;5074275;28;8774;-38
2021/06/11 14:40:16;;;;;;;;;0.33;0.33;;;;;;;;5076360;28;8791;-38
2021/06/11 14:42:41;;;;;;;;;1.00;1.00;;;;;;;;5076539;28;8782;-39
2021/06/11 14:45:07;;;;;;;;;0.67;0.33;;;;;;;;5077667;28;9539;-38
2021/06/11 14:47:32;;;;;;;;;1.00;1.00;;;;;;;;5076250;28;8812;-38
2021/06/11 14:49:58;;;;;;;;;0.33;0.33;;;;;;;;5076842;28;8828;-39
2021/06/11 14:52:23;;;;;;;;;0.33;0.33;;;;;;;;5079314;28;8906;-39